Time;durP1;ratioP1;P1;durP2;ratioP2;P2;SDS_P1;SDS_P2;PMS_P1;PMS_P2;Temp;Humidity;BMP_temperature;BMP_pressure;BME280_temperature;BME280_humidity;BME280_pressure;Samples;Min_cycle;Max_cycle;Signal;HPM_P1;HPM_P2
2024/02/18 00:00:08;;;;;;;13.67;7.30;;;;;;;3.83;100.00;99305.72;6305848;28;20661;-53
2024/02/18 00:03:12;;;;;;;8.87;6.30;;;;;;;3.93;100.00;99305.59;6305717;28;20278;-54
2024/02/18 00:06:14;;;;;;;8.63;6.33;;;;;;;3.93;100.00;99313.50;6307155;28;20702;-52
2024/02/18 00:09:19;;;;;;;6.70;3.73;;;;;;;3.85;100.00;99312.50;6307707;28;20218;-54
2024/02/18 00:12:23;;;;;;;5.57;3.43;;;;;;;3.92;100.00;99310.06;6308460;28;20193;-53
2024/02/18 00:15:25;;;;;;;4.60;2.97;;;;;;;3.90;100.00;99314.66;6303667;28;20204;-50
2024/02/18 00:18:28;;;;;;;3.03;2.50;;;;;;;4.07;100.00;99312.91;6313622;28;20570;-52
2024/02/18 00:21:31;;;;;;;3.23;2.93;;;;;;;4.16;100.00;99319.88;6314697;28;20179;-53
2024/02/18 00:24:33;;;;;;;2.60;2.40;;;;;;;4.16;100.00;99313.75;6315662;28;20843;-53
2024/02/18 00:27:35;;;;;;;5.00;2.40;;;;;;;4.23;100.00;99312.13;6310726;28;20202;-53
2024/02/18 00:30:38;;;;;;;3.83;2.80;;;;;;;4.19;100.00;99314.28;6303472;28;20202;-52
2024/02/18 00:33:40;;;;;;;5.67;2.83;;;;;;;4.32;100.00;99317.25;6305954;28;20198;-52
2024/02/18 00:36:43;;;;;;;4.73;2.80;;;;;;;4.16;100.00;99290.03;6306009;28;20205;-52
2024/02/18 00:39:45;;;;;;;5.30;3.43;;;;;;;4.25;100.00;99296.97;6312142;28;20190;-54
2024/02/18 00:42:47;;;;;;;3.27;2.90;;;;;;;4.33;100.00;99305.72;6312816;28;20196;-53
2024/02/18 00:45:50;;;;;;;3.67;2.77;;;;;;;4.32;100.00;99297.97;6312200;28;20217;-52
2024/02/18 00:48:52;;;;;;;5.00;2.80;;;;;;;4.18;100.00;99272.22;6310152;28;20232;-53
2024/02/18 00:51:54;;;;;;;4.10;2.73;;;;;;;4.33;100.00;99289.88;6308270;28;20199;-52
2024/02/18 00:54:57;;;;;;;3.57;3.27;;;;;;;4.23;100.00;99298.94;6313249;28;20194;-53
2024/02/18 00:57:59;;;;;;;3.40;2.83;;;;;;;4.35;100.00;99277.38;6311305;28;20202;-53
2024/02/18 01:01:03;;;;;;;3.33;3.03;;;;;;;4.22;100.00;99292.00;6306527;28;20190;-52
2024/02/18 01:04:05;;;;;;;3.57;3.20;;;;;;;4.12;100.00;99277.16;6303581;28;20187;-51
2024/02/18 01:07:09;;;;;;;4.13;3.40;;;;;;;4.21;100.00;99283.28;6302886;28;20683;-53
2024/02/18 01:10:12;;;;;;;3.90;2.90;;;;;;;4.33;100.00;99286.41;6307686;28;20242;-53
2024/02/18 01:13:14;;;;;;;3.70;2.80;;;;;;;4.14;100.00;99272.56;6298434;28;20482;-52
2024/02/18 01:16:17;;;;;;;4.90;4.07;;;;;;;3.95;100.00;99251.75;6299693;28;20203;-49
2024/02/18 01:19:20;;;;;;;4.93;3.60;;;;;;;4.13;100.00;99291.97;6312204;28;20548;-53
2024/02/18 01:22:24;;;;;;;4.40;3.60;;;;;;;3.93;100.00;99279.25;6300926;28;20186;-52
2024/02/18 01:25:26;;;;;;;4.77;3.67;;;;;;;3.97;100.00;99275.28;6306330;28;20200;-52
2024/02/18 01:28:28;;;;;;;6.20;3.67;;;;;;;4.03;100.00;99296.56;6304041;28;20561;-52
2024/02/18 01:31:32;;;;;;;5.40;3.43;;;;;;;4.07;100.00;99286.53;6304010;28;20207;-52
2024/02/18 01:34:34;;;;;;;5.27;4.30;;;;;;;4.13;100.00;99286.72;6303893;28;20198;-53
2024/02/18 01:37:37;;;;;;;5.43;3.97;;;;;;;4.07;100.00;99302.34;6302769;28;20198;-53
2024/02/18 01:40:40;;;;;;;10.67;3.80;;;;;;;4.13;100.00;99302.53;6305685;28;20225;-52
2024/02/18 01:43:42;;;;;;;4.70;4.07;;;;;;;4.23;100.00;99302.41;6297066;28;20222;-52
2024/02/18 01:46:44;;;;;;;4.10;3.40;;;;;;;4.13;100.00;99297.25;6308510;28;20198;-54
2024/02/18 01:49:48;;;;;;;4.80;3.73;;;;;;;4.05;100.00;99302.53;6314571;28;20284;-49
2024/02/18 01:52:52;;;;;;;4.60;3.57;;;;;;;4.10;100.00;99309.97;6306922;28;20265;-54
2024/02/18 01:55:55;;;;;;;4.00;3.50;;;;;;;3.97;100.00;99286.66;6303714;28;20925;-53
2024/02/18 01:58:57;;;;;;;4.03;3.60;;;;;;;3.99;100.00;99315.50;6306843;28;20183;-50
2024/02/18 02:02:00;;;;;;;6.47;4.00;;;;;;;3.92;100.00;99317.13;6302033;28;20193;-51
2024/02/18 02:05:08;;;;;;;3.70;3.30;;;;;;;3.77;100.00;99287.91;6305241;28;20647;-54
2024/02/18 02:08:10;;;;;;;5.00;4.13;;;;;;;3.84;100.00;99320.56;6306265;28;20336;-54
2024/02/18 02:11:13;;;;;;;4.57;3.77;;;;;;;3.77;100.00;99312.47;6298177;28;20672;-54
2024/02/18 02:14:16;;;;;;;4.67;3.73;;;;;;;3.98;100.00;99312.03;6305634;28;20610;-52
2024/02/18 02:17:18;;;;;;;5.20;3.93;;;;;;;3.84;100.00;99313.50;6294667;28;20194;-53
2024/02/18 02:20:20;;;;;;;8.67;3.97;;;;;;;3.87;100.00;99307.06;6305616;28;20718;-53
2024/02/18 02:23:23;;;;;;;4.53;3.83;;;;;;;3.48;100.00;99272.47;6312326;28;20217;-52
2024/02/18 02:26:29;;;;;;;5.17;4.00;;;;;;;3.69;100.00;99316.84;6306607;28;20590;-50
2024/02/18 02:29:31;;;;;;;7.50;5.20;;;;;;;3.21;100.00;99300.63;6302067;28;20210;-52
2024/02/18 02:32:37;;;;;;;7.20;4.73;;;;;;;3.46;100.00;99319.22;6292681;28;20564;-53
2024/02/18 02:35:39;;;;;;;8.17;5.47;;;;;;;3.44;100.00;99315.91;6291163;28;20198;-52
2024/02/18 02:38:41;;;;;;;6.53;4.83;;;;;;;3.45;100.00;99318.41;6298809;28;20189;-52
2024/02/18 02:41:44;;;;;;;5.60;5.00;;;;;;;3.61;100.00;99315.03;6309550;28;20239;-53
2024/02/18 02:44:46;;;;;;;8.30;5.43;;;;;;;3.21;100.00;99315.63;6307624;28;20193;-53
2024/02/18 02:47:50;;;;;;;9.00;5.13;;;;;;;3.18;100.00;99306.19;6297805;28;20234;-54
2024/02/18 02:50:52;;;;;;;11.13;5.27;;;;;;;3.28;100.00;99317.47;6302398;28;20210;-52
2024/02/18 02:53:54;;;;;;;6.17;4.93;;;;;;;3.23;100.00;99324.16;6305803;28;20195;-52
2024/02/18 02:56:57;;;;;;;6.30;5.27;;;;;;;3.21;100.00;99310.34;6301235;28;20222;-54
2024/02/18 02:59:59;;;;;;;6.77;5.60;;;;;;;3.47;100.00;99331.41;6309568;28;20572;-51
2024/02/18 03:03:01;;;;;;;7.83;5.20;;;;;;;3.68;100.00;99336.28;6306521;28;20849;-51
2024/02/18 03:06:03;;;;;;;7.37;5.17;;;;;;;3.57;100.00;99332.94;6309642;28;20229;-53
2024/02/18 03:09:07;;;;;;;5.30;4.60;;;;;;;3.77;100.00;99333.53;6313600;28;20562;-50
2024/02/18 03:12:09;;;;;;;8.53;5.70;;;;;;;3.76;100.00;99331.91;6303770;28;20256;-51
2024/02/18 03:15:11;;;;;;;8.60;5.73;;;;;;;3.71;100.00;99328.09;6309728;28;20209;-53
2024/02/18 03:18:14;;;;;;;8.23;6.20;;;;;;;3.58;100.00;99331.97;6307666;28;20244;-55
2024/02/18 03:21:16;;;;;;;7.63;5.93;;;;;;;3.62;100.00;99335.94;6304740;28;20182;-49
2024/02/18 03:24:18;;;;;;;7.90;6.07;;;;;;;3.53;100.00;99336.06;6299634;28;20324;-52
2024/02/18 03:27:21;;;;;;;11.17;8.57;;;;;;;3.38;100.00;99334.97;6310483;28;20558;-54
2024/02/18 03:30:23;;;;;;;9.47;7.70;;;;;;;3.46;100.00;99337.66;6307605;28;20230;-53
2024/02/18 03:33:25;;;;;;;9.73;7.17;;;;;;;3.33;100.00;99338.88;6305366;28;20331;-54
2024/02/18 03:36:28;;;;;;;12.50;7.33;;;;;;;3.29;100.00;99336.72;6309189;28;20413;-52
2024/02/18 03:39:30;;;;;;;8.13;6.27;;;;;;;3.30;100.00;99341.00;6305524;28;20660;-52
2024/02/18 03:42:32;;;;;;;8.80;7.17;;;;;;;3.18;100.00;99340.44;6305304;28;20357;-53
2024/02/18 03:45:35;;;;;;;9.90;6.37;;;;;;;3.25;100.00;99336.22;6312737;28;20186;-53
2024/02/18 03:48:37;;;;;;;8.53;6.43;;;;;;;3.01;100.00;99317.59;6300699;28;20251;-53
2024/02/18 03:51:39;;;;;;;8.03;6.67;;;;;;;3.12;100.00;99342.88;6315766;28;20217;-55
2024/02/18 03:54:41;;;;;;;10.37;7.50;;;;;;;3.16;100.00;99341.59;6305173;28;20202;-54
2024/02/18 03:57:44;;;;;;;11.67;8.40;;;;;;;3.13;100.00;99341.88;6307823;28;20330;-53
2024/02/18 04:00:47;;;;;;;10.73;6.60;;;;;;;3.18;100.00;99335.16;6306918;28;20201;-53
2024/02/18 04:03:49;;;;;;;8.90;6.40;;;;;;;3.01;100.00;99346.56;6307402;28;20198;-53
2024/02/18 04:06:51;;;;;;;9.70;7.33;;;;;;;2.68;100.00;99329.66;6306042;28;20193;-53
2024/02/18 04:09:54;;;;;;;8.57;6.97;;;;;;;2.87;100.00;99352.38;6313821;28;20217;-53
2024/02/18 04:12:56;;;;;;;9.83;7.60;;;;;;;2.80;100.00;99352.13;6308522;28;20203;-52
2024/02/18 04:15:58;;;;;;;12.50;7.73;;;;;;;2.80;100.00;99357.38;6302725;28;20675;-53
2024/02/18 04:19:00;;;;;;;9.63;6.47;;;;;;;2.48;100.00;99355.28;6303857;28;20279;-54
2024/02/18 04:22:02;;;;;;;9.27;6.53;;;;;;;2.53;100.00;99353.03;6305318;28;20200;-52
2024/02/18 04:25:05;;;;;;;10.07;7.10;;;;;;;2.43;100.00;99354.91;6308670;28;20198;-53
2024/02/18 04:28:07;;;;;;;8.37;6.20;;;;;;;2.31;100.00;99349.00;6305316;28;20266;-50
2024/02/18 04:31:10;;;;;;;9.57;6.33;;;;;;;2.24;100.00;99346.16;6307140;28;20712;-51
2024/02/18 04:34:12;;;;;;;10.90;7.33;;;;;;;2.30;100.00;99350.81;6303859;28;20542;-53
2024/02/18 04:37:14;;;;;;;10.73;7.93;;;;;;;2.37;100.00;99350.25;6310034;28;20777;-53
2024/02/18 04:40:17;;;;;;;10.33;7.90;;;;;;;2.32;100.00;99369.91;6313269;28;20234;-53
2024/02/18 04:43:19;;;;;;;11.83;7.83;;;;;;;2.37;100.00;99356.31;6315945;28;20205;-55
2024/02/18 04:46:21;;;;;;;8.17;6.87;;;;;;;2.40;100.00;99358.63;6300036;28;20855;-54
2024/02/18 04:49:23;;;;;;;13.53;10.23;;;;;;;2.50;100.00;99358.59;6308939;28;20270;-53
2024/02/18 04:52:29;;;;;;;10.33;8.60;;;;;;;2.63;100.00;99356.41;6308796;28;20212;-54
2024/02/18 04:55:31;;;;;;;9.90;7.43;;;;;;;2.45;100.00;99353.75;6307729;28;20205;-53
2024/02/18 04:58:33;;;;;;;15.00;9.20;;;;;;;2.48;100.00;99355.28;6299537;28;20659;-52
2024/02/18 05:01:36;;;;;;;15.87;9.23;;;;;;;2.43;100.00;99336.50;6303715;28;20657;-53
2024/02/18 05:04:38;;;;;;;11.17;7.30;;;;;;;2.83;100.00;99360.56;6304454;28;20208;-51
2024/02/18 05:07:40;;;;;;;9.60;6.57;;;;;;;2.47;100.00;99358.91;6295816;28;20669;-52
2024/02/18 05:10:42;;;;;;;9.53;6.90;;;;;;;2.46;100.00;99354.59;6296695;28;20209;-51
2024/02/18 05:13:45;;;;;;;9.20;6.30;;;;;;;2.47;100.00;99359.72;6316939;28;20651;-53
2024/02/18 05:16:47;;;;;;;9.57;7.07;;;;;;;2.49;100.00;99359.56;6312897;28;20844;-51
2024/02/18 05:19:51;;;;;;;8.10;6.30;;;;;;;2.54;100.00;99359.94;6306542;28;20703;-51
2024/02/18 05:22:53;;;;;;;8.13;6.60;;;;;;;2.67;100.00;99347.25;6299999;28;20579;-53
2024/02/18 05:25:56;;;;;;;9.80;6.47;;;;;;;2.68;100.00;99351.53;6299376;28;20196;-50
2024/02/18 05:28:58;;;;;;;7.57;5.90;;;;;;;2.91;100.00;99332.66;6305027;28;20193;-51
2024/02/18 05:32:00;;;;;;;9.03;6.20;;;;;;;2.76;100.00;99337.63;6302391;28;20643;-52
2024/02/18 05:35:02;;;;;;;9.33;6.07;;;;;;;2.59;100.00;99345.34;6300869;28;20198;-52
2024/02/18 05:38:07;;;;;;;6.90;5.37;;;;;;;2.54;100.00;99344.97;6310889;28;20206;-53
2024/02/18 05:41:09;;;;;;;6.10;5.23;;;;;;;2.47;100.00;99345.75;6300966;28;20226;-52
2024/02/18 05:44:12;;;;;;;8.73;5.30;;;;;;;2.48;100.00;99347.41;6304831;28;20210;-53
2024/02/18 05:47:14;;;;;;;6.00;4.50;;;;;;;2.27;100.00;99326.63;6309705;28;20220;-52
2024/02/18 05:50:16;;;;;;;6.77;5.70;;;;;;;2.28;100.00;99346.69;6303550;28;20213;-53
2024/02/18 05:53:18;;;;;;;7.03;5.40;;;;;;;2.19;100.00;99347.56;6309119;28;20654;-52
2024/02/18 05:56:23;;;;;;;9.17;6.10;;;;;;;2.15;100.00;99359.34;6301891;28;20727;-52
2024/02/18 05:59:25;;;;;;;6.33;5.60;;;;;;;2.06;100.00;99359.25;6292998;28;20559;-53
2024/02/18 06:02:27;;;;;;;6.70;5.67;;;;;;;2.07;100.00;99362.72;6301484;28;20200;-51
2024/02/18 06:05:30;;;;;;;5.70;5.10;;;;;;;1.83;100.00;99333.50;6298445;28;20194;-52
2024/02/18 06:08:32;;;;;;;9.63;4.70;;;;;;;1.71;100.00;99328.44;6312107;28;20328;-54
2024/02/18 06:11:36;;;;;;;10.43;6.10;;;;;;;1.87;100.00;99366.38;6311644;28;20205;-52
2024/02/18 06:14:39;;;;;;;7.17;5.63;;;;;;;2.18;100.00;99366.97;6313167;28;20875;-53
2024/02/18 06:17:41;;;;;;;5.53;4.20;;;;;;;1.95;100.00;99369.94;6301369;28;20579;-53
2024/02/18 06:20:44;;;;;;;5.97;4.43;;;;;;;1.92;100.00;99385.19;6303471;28;20199;-52
2024/02/18 06:23:47;;;;;;;7.47;5.23;;;;;;;1.73;100.00;99370.34;6302316;28;20432;-52
2024/02/18 06:26:49;;;;;;;8.57;5.80;;;;;;;1.90;100.00;99381.88;6302339;28;20222;-53
2024/02/18 06:29:51;;;;;;;5.63;4.87;;;;;;;2.13;100.00;99383.16;6300509;28;20206;-53
2024/02/18 06:32:54;;;;;;;7.87;5.70;;;;;;;1.98;100.00;99374.09;6307715;28;20581;-51
2024/02/18 06:35:56;;;;;;;6.67;5.13;;;;;;;2.15;100.00;99386.47;6304096;28;20193;-51
2024/02/18 06:38:59;;;;;;;6.57;5.27;;;;;;;2.45;100.00;99379.25;6313860;28;20663;-53
2024/02/18 06:42:01;;;;;;;8.27;6.47;;;;;;;2.45;100.00;99374.81;6312352;28;20276;-52
2024/02/18 06:45:06;;;;;;;7.87;6.30;;;;;;;2.59;100.00;99395.34;6302896;28;20223;-54
2024/02/18 06:48:08;;;;;;;8.57;7.30;;;;;;;2.61;100.00;99384.69;6308126;28;20198;-52
2024/02/18 06:51:12;;;;;;;7.93;5.57;;;;;;;2.81;100.00;99394.09;6313840;28;20204;-51
2024/02/18 06:54:14;;;;;;;9.53;6.57;;;;;;;2.82;100.00;99394.94;6312789;28;20198;-52
2024/02/18 06:57:16;;;;;;;7.70;5.60;;;;;;;2.91;100.00;99366.88;6307174;28;20730;-52
2024/02/18 07:00:19;;;;;;;9.47;5.57;;;;;;;3.17;100.00;99391.44;6306914;28;20782;-51
2024/02/18 07:03:21;;;;;;;8.80;5.17;;;;;;;3.24;100.00;99384.59;6310206;28;20713;-53
2024/02/18 07:06:24;;;;;;;8.27;5.57;;;;;;;3.11;100.00;99397.34;6315058;28;20200;-52
2024/02/18 07:09:27;;;;;;;7.17;4.87;;;;;;;3.21;100.00;99379.63;6310697;28;20709;-52
2024/02/18 07:12:29;;;;;;;7.43;4.93;;;;;;;3.25;100.00;99386.25;6304944;28;20292;-49
2024/02/18 07:15:31;;;;;;;7.17;4.80;;;;;;;3.20;100.00;99385.88;6304380;28;20593;-50
2024/02/18 07:18:33;;;;;;;6.10;4.37;;;;;;;3.08;100.00;99366.03;6313749;28;20197;-51
2024/02/18 07:21:36;;;;;;;5.27;4.23;;;;;;;3.19;100.00;99386.84;6300454;28;20281;-52
2024/02/18 07:24:38;;;;;;;6.57;5.20;;;;;;;3.10;100.00;99383.34;6305849;28;20199;-52
2024/02/18 07:27:40;;;;;;;4.20;3.80;;;;;;;3.47;100.00;99386.72;6307477;28;20204;-52
2024/02/18 07:30:42;;;;;;;6.70;5.10;;;;;;;3.26;100.00;99379.19;6310558;28;20215;-52
2024/02/18 07:33:44;;;;;;;7.00;4.10;;;;;;;3.40;100.00;99393.59;6309724;28;20192;-51
2024/02/18 07:36:47;;;;;;;5.83;4.97;;;;;;;3.43;100.00;99393.28;6304659;28;20207;-51
2024/02/18 07:39:49;;;;;;;5.53;4.83;;;;;;;3.56;100.00;99396.34;6307219;28;20187;-52
2024/02/18 07:42:52;;;;;;;5.63;4.80;;;;;;;3.82;100.00;99389.25;6311460;28;20789;-50
2024/02/18 07:45:54;;;;;;;6.10;4.30;;;;;;;4.06;100.00;99400.91;6295233;28;20206;-49
2024/02/18 07:48:56;;;;;;;6.13;4.37;;;;;;;4.23;100.00;99400.00;6303273;28;20197;-50
2024/02/18 07:51:59;;;;;;;6.40;4.50;;;;;;;4.37;100.00;99403.84;6309949;28;20218;-52
2024/02/18 07:55:02;;;;;;;6.03;4.77;;;;;;;4.37;100.00;99396.75;6307282;28;20277;-52
2024/02/18 07:58:05;;;;;;;5.47;4.80;;;;;;;4.72;100.00;99405.44;6306375;28;20225;-51
2024/02/18 08:01:07;;;;;;;4.97;4.47;;;;;;;4.98;100.00;99404.50;6308577;28;20187;-51
2024/02/18 08:04:10;;;;;;;6.87;3.13;;;;;;;5.15;100.00;99388.47;6304639;28;20205;-52
2024/02/18 08:07:13;;;;;;;5.20;2.60;;;;;;;5.59;100.00;99387.31;6309985;28;20233;-53
2024/02/18 08:10:15;;;;;;;3.53;2.73;;;;;;;6.07;100.00;99396.16;6313832;28;20645;-53
2024/02/18 08:13:17;;;;;;;4.53;2.40;;;;;;;6.33;98.90;99399.34;6298637;28;20871;-54
2024/02/18 08:16:20;;;;;;;2.37;2.17;;;;;;;6.54;95.85;99397.94;6314822;28;20197;-53
2024/02/18 08:19:22;;;;;;;2.47;2.10;;;;;;;6.51;94.86;99406.25;6311197;28;20193;-54
2024/02/18 08:22:25;;;;;;;2.77;2.13;;;;;;;6.71;92.22;99387.09;6299383;28;20274;-55
2024/02/18 08:25:27;;;;;;;3.20;2.40;;;;;;;6.61;93.65;99390.97;6306968;28;20733;-51
2024/02/18 08:28:29;;;;;;;3.67;2.90;;;;;;;6.55;94.27;99392.47;6304066;28;20688;-53
2024/02/18 08:31:34;;;;;;;4.50;1.93;;;;;;;6.85;91.50;99393.47;6301644;28;20206;-51
2024/02/18 08:34:37;;;;;;;2.70;2.33;;;;;;;6.93;92.01;99384.63;6313241;28;20280;-54
2024/02/18 08:37:39;;;;;;;4.00;2.30;;;;;;;7.11;93.76;99397.59;6308241;28;20566;-53
2024/02/18 08:40:44;;;;;;;2.30;2.00;;;;;;;7.32;87.28;99391.63;6313099;28;20238;-52
2024/02/18 08:43:52;;;;;;;4.60;2.70;;;;;;;7.41;86.47;99372.81;6312174;28;20191;-52
2024/02/18 08:46:54;;;;;;;2.97;2.53;;;;;;;7.44;86.08;99371.63;6310885;28;20200;-55
2024/02/18 08:49:56;;;;;;;2.50;1.80;;;;;;;7.64;87.71;99382.56;6306022;28;20277;-50
2024/02/18 08:52:59;;;;;;;2.00;1.67;;;;;;;7.73;83.01;99381.44;6303427;28;20751;-51
2024/02/18 08:56:01;;;;;;;2.50;2.30;;;;;;;7.67;84.19;99361.78;6304849;28;20617;-53
2024/02/18 08:59:04;;;;;;;2.90;2.20;;;;;;;7.85;84.58;99373.88;6305103;28;20208;-52
2024/02/18 09:02:06;;;;;;;3.27;2.30;;;;;;;7.89;83.11;99373.34;6301521;28;20247;-55
2024/02/18 09:05:08;;;;;;;2.50;2.30;;;;;;;8.07;82.63;99374.78;6308453;28;20190;-54
2024/02/18 09:08:11;;;;;;;2.23;1.97;;;;;;;8.25;85.04;99367.25;6315795;28;20850;-54
2024/02/18 09:11:14;;;;;;;3.70;3.10;;;;;;;8.31;84.77;99376.31;6301559;28;20218;-54
2024/02/18 09:14:16;;;;;;;4.33;2.60;;;;;;;8.41;80.70;99376.88;6304563;28;20194;-53
2024/02/18 09:17:19;;;;;;;5.23;2.90;;;;;;;8.49;82.86;99376.78;6299728;28;20828;-52
2024/02/18 09:20:21;;;;;;;3.20;2.23;;;;;;;8.53;84.07;99376.22;6306470;28;20198;-53
2024/02/18 09:23:23;;;;;;;4.23;2.67;;;;;;;8.31;82.62;99379.78;6306525;28;20561;-53
2024/02/18 09:26:25;;;;;;;4.60;3.00;;;;;;;8.30;84.15;99375.50;6301799;28;20231;-60
2024/02/18 09:29:29;;;;;;;2.50;2.27;;;;;;;8.49;80.37;99374.13;6306260;28;20675;-58
2024/02/18 09:32:31;;;;;;;3.30;3.00;;;;;;;8.69;79.93;99374.34;6307685;28;20550;-57
2024/02/18 09:35:34;;;;;;;5.30;2.83;;;;;;;8.36;80.93;99371.28;6313649;28;20573;-59
2024/02/18 09:38:37;;;;;;;3.77;2.53;;;;;;;8.49;82.73;99364.31;6292543;28;20742;-58
2024/02/18 09:41:44;;;;;;;3.57;2.70;;;;;;;8.36;82.35;99364.16;6300349;28;20233;-57
2024/02/18 09:44:47;;;;;;;4.03;3.17;;;;;;;8.34;80.73;99363.50;6307163;28;20276;-57
2024/02/18 09:47:51;;;;;;;3.43;2.60;;;;;;;8.50;81.67;99359.84;6307280;28;20299;-59
2024/02/18 09:50:53;;;;;;;3.87;3.07;;;;;;;8.88;78.70;99365.78;6304763;28;20191;-59
2024/02/18 09:53:58;;;;;;;3.67;3.00;;;;;;;8.88;80.82;99365.78;6305169;28;20190;-59
2024/02/18 09:57:01;;;;;;;4.63;3.60;;;;;;;8.85;77.45;99344.06;6305230;28;20197;-58
2024/02/18 10:00:04;;;;;;;5.50;3.27;;;;;;;9.15;78.07;99355.38;6301919;28;20194;-60
2024/02/18 10:03:08;;;;;;;3.97;3.10;;;;;;;9.24;77.34;99344.41;6308668;28;20202;-56
2024/02/18 10:06:12;;;;;;;4.30;3.50;;;;;;;9.18;75.65;99339.06;6314207;28;20189;-58
2024/02/18 10:09:18;;;;;;;3.63;3.17;;;;;;;9.35;75.25;99329.75;6322252;28;20224;-57
2024/02/18 10:12:22;;;;;;;3.57;3.27;;;;;;;9.50;74.24;99327.81;6306091;28;20204;-59
2024/02/18 10:15:28;;;;;;;6.17;2.97;;;;;;;9.77;73.93;99336.00;6306539;28;20212;-57
2024/02/18 10:18:31;;;;;;;3.37;3.07;;;;;;;9.91;71.24;99331.56;6305049;28;20283;-58
2024/02/18 10:21:34;;;;;;;4.67;3.43;;;;;;;9.71;72.27;99323.47;6308415;28;20316;-59
2024/02/18 10:24:39;;;;;;;4.30;3.27;;;;;;;9.72;74.16;99322.44;6303068;28;20685;-60
2024/02/18 10:27:41;;;;;;;2.87;2.67;;;;;;;9.73;71.49;99310.78;6302626;28;20564;-57
2024/02/18 10:30:45;;;;;;;5.03;3.10;;;;;;;9.53;73.75;99314.16;6309858;28;20197;-60
2024/02/18 10:33:48;;;;;;;5.10;3.40;;;;;;;9.49;72.76;99291.59;6303187;28;20216;-58
2024/02/18 10:36:59;;;;;;;3.53;3.03;;;;;;;9.74;73.37;99307.91;6313070;28;20193;-56
2024/02/18 10:40:14;;;;;;;4.07;3.20;;;;;;;9.70;71.79;99295.19;6307650;28;20198;-59
2024/02/18 10:43:25;;;;;;;3.87;3.10;;;;;;;9.63;71.93;99297.00;6308598;28;20279;-58
2024/02/18 10:46:30;;;;;;;6.40;4.20;;;;;;;9.48;74.65;99270.53;6299626;28;20200;-58
2024/02/18 10:49:38;;;;;;;4.03;3.47;;;;;;;9.80;73.31;99259.25;6302328;28;20271;-59
2024/02/18 10:53:02;;;;;;;4.07;3.63;;;;;;;9.92;73.68;99261.34;6303421;28;20215;-59
2024/02/18 10:56:21;;;;;;;4.20;3.70;;;;;;;10.26;74.07;99255.97;6302162;28;20966;-59
2024/02/18 10:59:35;;;;;;;5.33;3.70;;;;;;;10.58;67.87;99258.88;6297413;28;20197;-58
2024/02/18 11:02:59;;;;;;;4.00;3.60;;;;;;;10.23;72.19;99256.31;6302004;28;20188;-59
2024/02/18 11:06:03;;;;;;;4.33;3.50;;;;;;;10.36;70.01;99236.94;6306305;28;20698;-58
2024/02/18 11:09:08;;;;;;;5.13;3.27;;;;;;;10.28;69.11;99210.47;6304733;28;20203;-57
2024/02/18 11:12:15;;;;;;;4.27;3.57;;;;;;;10.47;69.21;99231.00;6296579;28;20842;-59
2024/02/18 11:15:18;;;;;;;4.03;3.63;;;;;;;10.59;67.56;99220.56;6297323;28;20194;-57
2024/02/18 11:18:21;;;;;;;4.33;3.07;;;;;;;10.49;68.60;99214.78;6320024;28;20239;-57
2024/02/18 11:21:25;;;;;;;3.63;2.57;;;;;;;10.68;72.08;99211.31;6306427;28;20189;-57
2024/02/18 11:24:29;;;;;;;3.00;2.53;;;;;;;10.89;67.91;99204.19;6305273;28;20195;-56
2024/02/18 11:27:32;;;;;;;3.50;3.00;;;;;;;10.75;66.60;99168.69;6310765;28;20266;-57
2024/02/18 11:30:35;;;;;;;4.67;3.20;;;;;;;10.98;65.18;99186.91;6310634;28;20587;-58
2024/02/18 11:33:37;;;;;;;3.20;2.47;;;;;;;10.91;63.90;99176.25;6316133;28;20713;-58
2024/02/18 11:36:40;;;;;;;3.90;2.90;;;;;;;11.09;60.31;99178.31;6313940;28;20200;-56
2024/02/18 11:39:42;;;;;;;3.03;2.50;;;;;;;11.03;61.44;99171.97;6300052;28;20321;-56
2024/02/18 11:42:45;;;;;;;2.47;2.27;;;;;;;11.09;60.09;99159.63;6300842;28;20708;-57
2024/02/18 11:45:49;;;;;;;4.53;2.10;;;;;;;11.22;58.36;99164.09;6310750;28;20255;-57
2024/02/18 11:48:55;;;;;;;2.60;2.40;;;;;;;11.08;58.91;99131.28;6308777;28;20335;-55
2024/02/18 11:51:57;;;;;;;4.10;2.27;;;;;;;11.22;57.04;99148.09;6304779;28;20205;-56
2024/02/18 11:55:00;;;;;;;2.67;2.33;;;;;;;11.35;55.70;99148.06;6310380;28;20210;-57
2024/02/18 11:58:03;;;;;;;2.53;2.33;;;;;;;11.25;57.01;99150.34;6305039;28;20213;-56
2024/02/18 12:01:06;;;;;;;2.90;2.27;;;;;;;11.31;57.14;99125.50;6312468;28;20289;-57
2024/02/18 12:04:08;;;;;;;2.30;2.10;;;;;;;11.35;56.82;99124.06;6310789;28;20243;-56
2024/02/18 12:07:12;;;;;;;3.00;1.90;;;;;;;11.58;59.24;99119.03;6302542;28;20617;-55
2024/02/18 12:10:15;;;;;;;3.63;2.60;;;;;;;11.71;56.34;99128.00;6302614;28;20222;-55
2024/02/18 12:13:17;;;;;;;3.07;2.47;;;;;;;11.81;53.89;99121.16;6297082;28;20225;-58
2024/02/18 12:16:20;;;;;;;2.67;2.37;;;;;;;11.77;53.54;99116.44;6306489;28;20735;-56
2024/02/18 12:19:22;;;;;;;4.87;2.57;;;;;;;11.80;54.77;99110.69;6305031;28;20579;-57
2024/02/18 12:22:27;;;;;;;3.37;1.93;;;;;;;11.79;54.07;99109.06;6308234;28;20190;-56
2024/02/18 12:25:36;;;;;;;2.97;2.20;;;;;;;11.60;54.58;99100.94;6306751;28;20196;-57
2024/02/18 12:28:38;;;;;;;2.53;2.17;;;;;;;11.50;55.59;99094.44;6303591;28;20191;-58
2024/02/18 12:31:43;;;;;;;4.90;2.37;;;;;;;11.57;55.82;99092.53;6302120;28;20592;-57
2024/02/18 12:34:47;;;;;;;4.97;2.70;;;;;;;11.32;56.26;99061.25;6309769;28;20651;-57
2024/02/18 12:37:50;;;;;;;2.90;1.90;;;;;;;11.17;58.39;99067.88;6299918;28;20229;-57
2024/02/18 12:40:56;;;;;;;2.60;2.13;;;;;;;10.93;58.83;99067.56;6307290;28;20767;-54
2024/02/18 12:43:58;;;;;;;2.20;1.90;;;;;;;10.80;60.38;99064.94;6302370;28;20668;-57
2024/02/18 12:47:21;;;;;;;1.80;1.70;;;;;;;10.76;60.40;99056.53;6302589;28;20886;-55
2024/02/18 12:50:24;;;;;;;2.13;1.93;;;;;;;10.82;57.03;99057.53;6305650;28;20194;-55
2024/02/18 12:53:27;;;;;;;1.80;1.70;;;;;;;10.90;56.37;99029.84;6305510;28;20196;-54
2024/02/18 12:56:32;;;;;;;3.73;2.10;;;;;;;11.01;55.25;99046.00;6307462;28;20210;-57
2024/02/18 12:59:35;;;;;;;2.40;1.90;;;;;;;10.83;59.04;99051.19;6312695;28;20200;-58
2024/02/18 13:02:37;;;;;;;4.23;1.70;;;;;;;10.92;55.84;99038.44;6312880;28;20190;-57
2024/02/18 13:05:41;;;;;;;2.10;1.90;;;;;;;11.03;56.31;99037.78;6305768;28;20193;-57
2024/02/18 13:08:43;;;;;;;6.00;1.90;;;;;;;10.93;61.72;99008.06;6301844;28;20218;-58
2024/02/18 13:11:45;;;;;;;2.17;1.80;;;;;;;11.28;53.21;99025.38;6297328;28;20220;-56
2024/02/18 13:15:12;;;;;;;3.00;1.30;;;;;;;11.35;52.90;99023.47;6298850;28;20191;-57
2024/02/18 13:18:21;;;;;;;1.87;1.33;;;;;;;11.43;49.68;99008.25;6302946;28;20225;-55
2024/02/18 13:21:25;;;;;;;1.40;1.30;;;;;;;11.49;52.65;99013.56;6307338;28;20190;-57
2024/02/18 13:24:27;;;;;;;2.87;1.33;;;;;;;11.49;49.64;99002.06;6297661;28;20652;-56
2024/02/18 13:27:30;;;;;;;1.97;1.10;;;;;;;11.25;49.44;98979.63;6295218;28;20220;-58
2024/02/18 13:30:32;;;;;;;1.30;1.20;;;;;;;11.31;49.46;98998.25;6301297;28;20201;-56
2024/02/18 13:33:34;;;;;;;5.60;2.80;;;;;;;11.17;59.90;98974.53;6303804;28;20198;-58
2024/02/18 13:36:39;;;;;;;4.07;2.80;;;;;;;11.09;61.51;98997.75;6296134;28;20784;-57
2024/02/18 13:39:42;;;;;;;4.20;3.43;;;;;;;10.97;61.49;98994.13;6294891;28;20300;-57
2024/02/18 13:42:44;;;;;;;3.80;3.10;;;;;;;10.84;60.99;98995.00;6298512;28;20229;-56
2024/02/18 13:45:46;;;;;;;2.93;2.70;;;;;;;10.58;61.95;98985.22;6305320;28;20205;-58
2024/02/18 13:48:49;;;;;;;3.23;2.93;;;;;;;10.62;64.10;98992.81;6306715;28;20198;-58
2024/02/18 13:51:52;;;;;;;5.07;3.50;;;;;;;10.77;62.95;98980.88;6305839;28;20292;-57
2024/02/18 13:54:54;;;;;;;4.70;3.73;;;;;;;10.64;64.07;98974.75;6305921;28;20204;-54
2024/02/18 13:57:57;;;;;;;5.27;4.07;;;;;;;10.71;64.88;98984.38;6303723;28;20191;-56
2024/02/18 14:00:59;;;;;;;7.47;4.23;;;;;;;10.43;65.73;98963.34;6294841;28;20660;-57
2024/02/18 14:04:02;;;;;;;5.77;4.20;;;;;;;10.54;65.24;98949.41;6292472;28;20209;-59
2024/02/18 14:07:04;;;;;;;4.33;3.93;;;;;;;10.61;66.27;98970.69;6313953;28;20568;-57
2024/02/18 14:10:06;;;;;;;5.33;4.50;;;;;;;10.55;66.42;98968.88;6311938;28;20193;-55
2024/02/18 14:13:11;;;;;;;5.60;4.90;;;;;;;10.36;67.92;98964.41;6307428;28;20221;-55
2024/02/18 14:16:13;;;;;;;4.87;4.30;;;;;;;10.19;68.25;98956.81;6305617;28;20204;-56
2024/02/18 14:19:16;;;;;;;4.47;3.87;;;;;;;10.09;70.99;98978.53;6303435;28;20196;-55
2024/02/18 14:22:18;;;;;;;8.33;4.67;;;;;;;9.91;70.82;98972.22;6302830;28;20191;-58